CMA CGM Tosca — FMEL — position and weather

sailwx.info

Track history (hours):
 
Tides and Currents Weather Stations Pressure Air Temp Water Temp Dewpoint Dewpoint Depression Visibility Wind Speed Wind Dir Waves Ship Positions

CMA CGM Tosca

Last reported at 2017-Mar-17 01:14 UTC. Time now 2017-Mar-25 02:04 UTC.
Position N 36°19' E 014°47'.
Warning: this ship's position is 8 days out of date.

Length 334 m; draft 14.4 m.

Type: Cargo ship. MMSI: 228335900.

Date/timePositionNaut miles runAvg speedWind from/ knotsBaromVisibWave heightAir tempDewpointWater temp
2017-Mar-17 01:14N 36°19' E 014°47'1421.0
2017-Mar-17 00:33N 36°24' E 014°30'2121.0
2017-Mar-16 23:33N 36°34' E 014°08'2121.4
2017-Mar-16 22:33N 36°47' E 013°46'2221.9
2017-Mar-16 21:33N 36°58' E 013°23'8420.9
2017-Mar-16 17:32N 37°50' E 011°60'12820.9
2017-Mar-16 11:25N 38°54' E 009°38'1820.3
2017-Mar-16 10:33N 39°03' E 009°18'1211.8
2017-Mar-16 09:33N 39°09' E 009°05'4 4.2
2017-Mar-16 08:33N 39°13' E 009°04'0 0.0
2017-Mar-16 07:33N 39°13' E 009°04'0 0.0
2017-Mar-16 06:33N 39°13' E 009°04'0 0.0
2017-Mar-16 05:33N 39°13' E 009°04'0 0.0
2017-Mar-16 04:33N 39°13' E 009°04'0 0.0
2017-Mar-16 03:27N 39°13' E 009°04'0 0.0
2017-Mar-16 02:33N 39°13' E 009°04'0 0.0
2017-Mar-16 01:33N 39°13' E 009°04'0 0.0
2017-Mar-16 00:33N 39°13' E 009°04'0 0.0
2017-Mar-15 23:33N 39°13' E 009°04'0 0.0
2017-Mar-15 22:33N 39°13' E 009°04'0 0.0
2017-Mar-15 21:33N 39°13' E 009°04'0 0.0
2017-Mar-15 20:33N 39°13' E 009°04'0 0.0
2017-Mar-15 19:33N 39°13' E 009°04'0 0.0
2017-Mar-15 18:33N 39°13' E 009°04'0 0.0
2017-Mar-15 17:33N 39°13' E 009°04'0 0.0
2017-Mar-15 16:33N 39°13' E 009°04'0 0.0
2017-Mar-15 15:33N 39°13' E 009°04'0 0.0
2017-Mar-15 14:33N 39°13' E 009°04'0 0.0
2017-Mar-15 13:33N 39°13' E 009°04'0 0.0
2017-Mar-15 12:33N 39°13' E 009°04'0 0.0
2017-Mar-15 11:33N 39°13' E 009°04'0 0.2
2017-Mar-15 10:33N 39°13' E 009°04'4 4.5
2017-Mar-15 09:33N 39°09' E 009°06'1 1.0
2017-Mar-15 08:33N 39°08' E 009°05'10 9.8
2017-Mar-15 07:33N 38°58' E 009°06'68220.4
2017-Mar-13 22:08N 36°02' W 004°45'1322.1
2017-Mar-13 21:32N 36°01' W 005°01'1919.0
2017-Mar-13 20:33N 35°58' W 005°24'6 6.3
2017-Mar-13 19:32N 35°54' W 005°30'0 0.0
2017-Mar-13 18:32N 35°54' W 005°30'0 0.0
2017-Mar-13 17:32N 35°54' W 005°30'0 0.0
2017-Mar-13 16:29N 35°54' W 005°30'0 0.0
2017-Mar-13 15:32N 35°54' W 005°30'0 0.0
2017-Mar-13 14:32N 35°54' W 005°30'0 0.0
2017-Mar-13 12:31N 35°54' W 005°30'0 0.0
2017-Mar-13 11:31N 35°54' W 005°30'0 0.0
2017-Mar-13 10:31N 35°54' W 005°30'0 0.0
2017-Mar-13 09:28N 35°54' W 005°30'0 0.0
2017-Mar-13 08:31N 35°54' W 005°30'0 0.0
2017-Mar-13 07:25N 35°54' W 005°30'0 0.0
2017-Mar-13 06:31N 35°54' W 005°30'0 0.0
2017-Mar-13 05:31N 35°54' W 005°30'2 1.8
2017-Mar-13 04:33N 35°55' W 005°30'2 1.8
2017-Mar-13 03:33N 35°54' W 005°31'3 3.3
2017-Mar-13 02:33N 35°54' W 005°36'8 7.5
2017-Mar-13 01:33N 35°53' W 005°45'1 1.4
2017-Mar-13 00:33N 35°53' W 005°46'7 6.5
2017-Mar-12 23:33N 35°53' W 005°54'180 7.2
2017-Mar-11 22:31N 36°43' W 009°29'46 8.4
2017-Mar-11 17:04N 37°27' W 009°48'1 1.2
2017-Mar-11 16:04N 37°28' W 009°47'4 7.8
2017-Mar-11 15:30N 37°32' W 009°48'10 9.6
2017-Mar-11 14:25N 37°42' W 009°51'910.2
2017-Mar-11 13:30N 37°51' W 009°53'9 9.6
2017-Mar-11 12:33N 38°01' W 009°54'1010.2
2017-Mar-11 11:33N 38°10' W 009°57'1010.1
2017-Mar-11 10:33N 38°20' W 009°60'1010.1
2017-Mar-11 09:33N 38°30' W 010°04'1010.5
2017-Mar-11 08:33N 38°40' W 010°06'1616.0
2017-Mar-11 07:34N 38°56' W 010°06'1918.6
2017-Mar-11 06:33N 39°15' W 010°06'1110.7
2017-Mar-11 05:33N 39°26' W 010°06'1310.6
2017-Mar-11 04:21N 39°38' W 010°06'2310.6
2017-Mar-11 02:15N 40°01' W 010°06'810.9
2017-Mar-11 01:31N 40°09' W 010°06'1310.4
2017-Mar-11 00:14N 40°22' W 010°06'710.4
2017-Mar-10 23:33N 40°29' W 010°07'1312.6
2017-Mar-10 22:33N 40°42' W 010°08'1514.6
2017-Mar-10 21:33N 40°56' W 010°07'1514.6
2017-Mar-10 20:33N 41°11' W 010°08'1414.4
2017-Mar-10 19:33N 41°25' W 010°07'1414.4
2017-Mar-10 18:33N 41°40' W 010°06'1514.7
2017-Mar-10 17:33N 41°54' W 010°07'1514.6
2017-Mar-10 16:33N 42°09' W 010°07'40813.6
2017-Mar-09 10:33N 48°22' W 006°14'1413.1
2017-Mar-09 09:30N 48°34' W 006°04'2713.8
2017-Mar-09 07:33N 48°56' W 005°41'10112.3
2017-Mar-08 23:20N 49°48' W 003°27'1013.3
2017-Mar-08 22:33N 49°53' W 003°13'1313.4
2017-Mar-08 21:33N 49°59' W 002°54'1313.1
2017-Mar-08 20:33N 50°02' W 002°35'1312.3
2017-Mar-08 19:29N 50°06' W 002°15'1011.0
2017-Mar-08 18:33N 50°08' W 001°59'1010.0
2017-Mar-08 17:34N 50°11' W 001°44'9 9.4
2017-Mar-08 16:34N 50°14' W 001°30'10 9.5
2017-Mar-08 15:34N 50°16' W 001°16'1010.3
2017-Mar-08 14:33N 50°19' W 001°00'2412.2
2017-Mar-08 12:33N 50°26' W 000°23'1312.8
2017-Mar-08 11:33N 50°30' W 000°04'1312.6
2017-Mar-08 10:31N 50°33' E 000°16'1212.4
2017-Mar-08 09:33N 50°36' E 000°34'1211.6
2017-Mar-08 08:33N 50°42' E 000°49'1817.0
2017-Mar-08 07:31N 50°52' E 001°12'1616.6
2017-Mar-08 06:33N 51°03' E 001°30'1313.2
2017-Mar-08 05:33N 51°13' E 001°44'1212.5
2017-Mar-08 04:33N 51°24' E 001°53'1212.5
2017-Mar-08 03:33N 51°36' E 001°48'1312.5
2017-Mar-08 02:33N 51°48' E 001°43'7 7.3
2017-Mar-08 01:33N 51°46' E 001°32'1818.0
2017-Mar-08 00:34N 51°34' E 001°11'1616.4
2017-Mar-07 23:34N 51°29' E 000°46'1010.3
2017-Mar-07 22:33N 51°30' E 000°29'0 0.0
2017-Mar-07 21:33N 51°30' E 000°29'0 0.0
2017-Mar-07 20:33N 51°30' E 000°29'0 0.0
2017-Mar-07 19:33N 51°30' E 000°29'0 0.0
2017-Mar-07 18:33N 51°30' E 000°29'0 0.0
2017-Mar-07 17:34N 51°30' E 000°29'0 0.0
2017-Mar-07 16:33N 51°30' E 000°29'0 0.0
2017-Mar-07 15:33N 51°30' E 000°29'0 0.0
2017-Mar-07 14:33N 51°30' E 000°29'0 0.0
2017-Mar-07 13:33N 51°30' E 000°29'0 0.0
2017-Mar-07 12:33N 51°30' E 000°29'0 0.0
2017-Mar-07 11:34N 51°30' E 000°29'0 0.0
2017-Mar-07 10:34N 51°30' E 000°29'0 0.0
2017-Mar-07 09:34N 51°30' E 000°29'0 0.0
2017-Mar-07 08:34N 51°30' E 000°29'0 0.0
2017-Mar-07 07:33N 51°30' E 000°29'0 0.0
2017-Mar-07 06:34N 51°30' E 000°29'0 0.0
2017-Mar-07 05:33N 51°30' E 000°29'0 0.0
2017-Mar-07 04:34N 51°30' E 000°29'0 0.0
2017-Mar-07 03:34N 51°30' E 000°29'0 0.0
2017-Mar-07 02:33N 51°30' E 000°29'0 0.0
2017-Mar-07 01:34N 51°30' E 000°29'  
Track history (hours):
 
Tides and Currents Weather Stations Pressure Air Temp Water Temp Dewpoint Dewpoint Depression Visibility Wind Speed Wind Dir Waves Ship Positions

CMA CGM Tosca

Last reported at 2017-Mar-17 01:14 UTC. Time now 2017-Mar-25 02:04 UTC.
Position N 36°19' E 014°47'.
Warning: this ship's position is 8 days out of date.

Length 334 m; draft 14.4 m.

Type: Cargo ship. MMSI: 228335900.

Date/timePositionNaut miles runAvg speedWind from/ knotsBaromVisibWave heightAir tempDewpointWater temp
2017-Mar-17 01:14N 36°19' E 014°47'1421.0
2017-Mar-17 00:33N 36°24' E 014°30'2121.0
2017-Mar-16 23:33N 36°34' E 014°08'2121.4
2017-Mar-16 22:33N 36°47' E 013°46'2221.9
2017-Mar-16 21:33N 36°58' E 013°23'8420.9
2017-Mar-16 17:32N 37°50' E 011°60'12820.9
2017-Mar-16 11:25N 38°54' E 009°38'1820.3
2017-Mar-16 10:33N 39°03' E 009°18'1211.8
2017-Mar-16 09:33N 39°09' E 009°05'4 4.2
2017-Mar-16 08:33N 39°13' E 009°04'0 0.0
2017-Mar-16 07:33N 39°13' E 009°04'0 0.0
2017-Mar-16 06:33N 39°13' E 009°04'0 0.0
2017-Mar-16 05:33N 39°13' E 009°04'0 0.0
2017-Mar-16 04:33N 39°13' E 009°04'0 0.0
2017-Mar-16 03:27N 39°13' E 009°04'0 0.0
2017-Mar-16 02:33N 39°13' E 009°04'0 0.0
2017-Mar-16 01:33N 39°13' E 009°04'0 0.0
2017-Mar-16 00:33N 39°13' E 009°04'0 0.0
2017-Mar-15 23:33N 39°13' E 009°04'0 0.0
2017-Mar-15 22:33N 39°13' E 009°04'0 0.0
2017-Mar-15 21:33N 39°13' E 009°04'0 0.0
2017-Mar-15 20:33N 39°13' E 009°04'0 0.0
2017-Mar-15 19:33N 39°13' E 009°04'0 0.0
2017-Mar-15 18:33N 39°13' E 009°04'0 0.0
2017-Mar-15 17:33N 39°13' E 009°04'0 0.0
2017-Mar-15 16:33N 39°13' E 009°04'0 0.0
2017-Mar-15 15:33N 39°13' E 009°04'0 0.0
2017-Mar-15 14:33N 39°13' E 009°04'0 0.0
2017-Mar-15 13:33N 39°13' E 009°04'0 0.0
2017-Mar-15 12:33N 39°13' E 009°04'0 0.0
2017-Mar-15 11:33N 39°13' E 009°04'0 0.2
2017-Mar-15 10:33N 39°13' E 009°04'4 4.5
2017-Mar-15 09:33N 39°09' E 009°06'1 1.0
2017-Mar-15 08:33N 39°08' E 009°05'10 9.8
2017-Mar-15 07:33N 38°58' E 009°06'68220.4
2017-Mar-13 22:08N 36°02' W 004°45'1322.1
2017-Mar-13 21:32N 36°01' W 005°01'1919.0
2017-Mar-13 20:33N 35°58' W 005°24'6 6.3
2017-Mar-13 19:32N 35°54' W 005°30'0 0.0
2017-Mar-13 18:32N 35°54' W 005°30'0 0.0
2017-Mar-13 17:32N 35°54' W 005°30'0 0.0
2017-Mar-13 16:29N 35°54' W 005°30'0 0.0
2017-Mar-13 15:32N 35°54' W 005°30'0 0.0
2017-Mar-13 14:32N 35°54' W 005°30'0 0.0
2017-Mar-13 12:31N 35°54' W 005°30'0 0.0
2017-Mar-13 11:31N 35°54' W 005°30'0 0.0
2017-Mar-13 10:31N 35°54' W 005°30'0 0.0
2017-Mar-13 09:28N 35°54' W 005°30'0 0.0
2017-Mar-13 08:31N 35°54' W 005°30'0 0.0
2017-Mar-13 07:25N 35°54' W 005°30'0 0.0
2017-Mar-13 06:31N 35°54' W 005°30'0 0.0
2017-Mar-13 05:31N 35°54' W 005°30'2 1.8
2017-Mar-13 04:33N 35°55' W 005°30'2 1.8
2017-Mar-13 03:33N 35°54' W 005°31'3 3.3
2017-Mar-13 02:33N 35°54' W 005°36'8 7.5
2017-Mar-13 01:33N 35°53' W 005°45'1 1.4
2017-Mar-13 00:33N 35°53' W 005°46'7 6.5
2017-Mar-12 23:33N 35°53' W 005°54'180 7.2
2017-Mar-11 22:31N 36°43' W 009°29'46 8.4
2017-Mar-11 17:04N 37°27' W 009°48'1 1.2
2017-Mar-11 16:04N 37°28' W 009°47'4 7.8
2017-Mar-11 15:30N 37°32' W 009°48'10 9.6
2017-Mar-11 14:25N 37°42' W 009°51'910.2
2017-Mar-11 13:30N 37°51' W 009°53'9 9.6
2017-Mar-11 12:33N 38°01' W 009°54'1010.2
2017-Mar-11 11:33N 38°10' W 009°57'1010.1
2017-Mar-11 10:33N 38°20' W 009°60'1010.1
2017-Mar-11 09:33N 38°30' W 010°04'1010.5
2017-Mar-11 08:33N 38°40' W 010°06'1616.0
2017-Mar-11 07:34N 38°56' W 010°06'1918.6
2017-Mar-11 06:33N 39°15' W 010°06'1110.7
2017-Mar-11 05:33N 39°26' W 010°06'1310.6
2017-Mar-11 04:21N 39°38' W 010°06'2310.6
2017-Mar-11 02:15N 40°01' W 010°06'810.9
2017-Mar-11 01:31N 40°09' W 010°06'1310.4
2017-Mar-11 00:14N 40°22' W 010°06'710.4
2017-Mar-10 23:33N 40°29' W 010°07'1312.6
2017-Mar-10 22:33N 40°42' W 010°08'1514.6
2017-Mar-10 21:33N 40°56' W 010°07'1514.6
2017-Mar-10 20:33N 41°11' W 010°08'1414.4
2017-Mar-10 19:33N 41°25' W 010°07'1414.4
2017-Mar-10 18:33N 41°40' W 010°06'1514.7
2017-Mar-10 17:33N 41°54' W 010°07'1514.6
2017-Mar-10 16:33N 42°09' W 010°07'40813.6
2017-Mar-09 10:33N 48°22' W 006°14'1413.1
2017-Mar-09 09:30N 48°34' W 006°04'2713.8
2017-Mar-09 07:33N 48°56' W 005°41'10112.3
2017-Mar-08 23:20N 49°48' W 003°27'1013.3
2017-Mar-08 22:33N 49°53' W 003°13'1313.4
2017-Mar-08 21:33N 49°59' W 002°54'1313.1
2017-Mar-08 20:33N 50°02' W 002°35'1312.3
2017-Mar-08 19:29N 50°06' W 002°15'1011.0
2017-Mar-08 18:33N 50°08' W 001°59'1010.0
2017-Mar-08 17:34N 50°11' W 001°44'9 9.4
2017-Mar-08 16:34N 50°14' W 001°30'10 9.5
2017-Mar-08 15:34N 50°16' W 001°16'1010.3
2017-Mar-08 14:33N 50°19' W 001°00'2412.2
2017-Mar-08 12:33N 50°26' W 000°23'1312.8
2017-Mar-08 11:33N 50°30' W 000°04'1312.6
2017-Mar-08 10:31N 50°33' E 000°16'1212.4
2017-Mar-08 09:33N 50°36' E 000°34'1211.6
2017-Mar-08 08:33N 50°42' E 000°49'1817.0
2017-Mar-08 07:31N 50°52' E 001°12'1616.6
2017-Mar-08 06:33N 51°03' E 001°30'1313.2
2017-Mar-08 05:33N 51°13' E 001°44'1212.5
2017-Mar-08 04:33N 51°24' E 001°53'1212.5
2017-Mar-08 03:33N 51°36' E 001°48'1312.5
2017-Mar-08 02:33N 51°48' E 001°43'7 7.3
2017-Mar-08 01:33N 51°46' E 001°32'1818.0
2017-Mar-08 00:34N 51°34' E 001°11'1616.4
2017-Mar-07 23:34N 51°29' E 000°46'1010.3
2017-Mar-07 22:33N 51°30' E 000°29'0 0.0
2017-Mar-07 21:33N 51°30' E 000°29'0 0.0
2017-Mar-07 20:33N 51°30' E 000°29'0 0.0
2017-Mar-07 19:33N 51°30' E 000°29'0 0.0
2017-Mar-07 18:33N 51°30' E 000°29'0 0.0
2017-Mar-07 17:34N 51°30' E 000°29'0 0.0
2017-Mar-07 16:33N 51°30' E 000°29'0 0.0
2017-Mar-07 15:33N 51°30' E 000°29'0 0.0
2017-Mar-07 14:33N 51°30' E 000°29'0 0.0
2017-Mar-07 13:33N 51°30' E 000°29'0 0.0
2017-Mar-07 12:33N 51°30' E 000°29'0 0.0
2017-Mar-07 11:34N 51°30' E 000°29'0 0.0
2017-Mar-07 10:34N 51°30' E 000°29'0 0.0
2017-Mar-07 09:34N 51°30' E 000°29'0 0.0
2017-Mar-07 08:34N 51°30' E 000°29'0 0.0
2017-Mar-07 07:33N 51°30' E 000°29'0 0.0
2017-Mar-07 06:34N 51°30' E 000°29'0 0.0
2017-Mar-07 05:33N 51°30' E 000°29'0 0.0
2017-Mar-07 04:34N 51°30' E 000°29'0 0.0
2017-Mar-07 03:34N 51°30' E 000°29'0 0.0
2017-Mar-07 02:33N 51°30' E 000°29'0 0.0
2017-Mar-07 01:34N 51°30' E 000°29'  

Dump ship's entire track history